Time;durP1;ratioP1;P1;durP2;ratioP2;P2;SDS_P1;SDS_P2;PMS_P1;PMS_P2;Temp;Humidity;BMP_temperature;BMP_pressure;BME280_temperature;BME280_humidity;BME280_pressure;Samples;Min_cycle;Max_cycle;Signal;HPM_P1;HPM_P2
2022/04/09 00:01:13;;;;;;;3.97;2.95;;;;;;;;;;10270670;28;20087;-63
2022/04/09 00:06:12;;;;;;;5.72;2.55;;;;;;;;;;10300163;28;20107;-62
2022/04/09 00:11:10;;;;;;;2.63;2.22;;;;;;;;;;10279724;28;20068;-62
2022/04/09 00:16:10;;;;;;;4.72;3.03;;;;;;;;;;10280295;28;20628;-63
2022/04/09 00:21:08;;;;;;;5.70;2.42;;;;;;;;;;10289381;28;20068;-63
2022/04/09 00:26:06;;;;;;;7.28;2.58;;;;;;;;;;10289186;28;20130;-63
2022/04/09 00:31:05;;;;;;;2.70;2.47;;;;;;;;;;10288937;28;20455;-62
2022/04/09 00:36:05;;;;;;;3.08;2.53;;;;;;;;;;10285475;28;20184;-62
2022/04/09 00:41:03;;;;;;;5.63;2.83;;;;;;;;;;10281702;28;20069;-62
2022/04/09 00:46:01;;;;;;;4.22;3.10;;;;;;;;;;10288077;28;20075;-62
2022/04/09 00:50:59;;;;;;;3.60;3.25;;;;;;;;;;10280350;28;20083;-62
2022/04/09 00:56:16;;;;;;;5.68;3.30;;;;;;;;;;10305532;28;20060;-62
2022/04/09 01:01:15;;;;;;;5.00;2.65;;;;;;;;;;10318638;28;20072;-63
2022/04/09 01:06:14;;;;;;;3.22;2.92;;;;;;;;;;10318059;28;20090;-63
2022/04/09 01:11:14;;;;;;;3.40;2.53;;;;;;;;;;10317061;28;20048;-63
2022/04/09 01:16:12;;;;;;;6.43;2.97;;;;;;;;;;10313424;28;20430;-63
2022/04/09 01:21:12;;;;;;;6.45;3.20;;;;;;;;;;10287290;28;20060;-62
2022/04/09 01:26:12;;;;;;;4.95;2.78;;;;;;;;;;10269478;28;20060;-62
2022/04/09 01:31:14;;;;;;;10.65;3.40;;;;;;;;;;10281440;28;20049;-63
2022/04/09 01:36:14;;;;;;;7.82;3.15;;;;;;;;;;10281752;28;20446;-62
2022/04/09 01:41:14;;;;;;;4.85;3.40;;;;;;;;;;10312536;28;20079;-63
2022/04/09 01:46:45;;;;;;;4.60;3.20;;;;;;;;;;10278740;28;20537;-62
2022/04/09 01:51:48;;;;;;;4.50;3.22;;;;;;;;;;10291773;28;20124;-62
2022/04/09 01:56:48;;;;;;;3.63;3.05;;;;;;;;;;10291358;28;20065;-63
2022/04/09 02:01:48;;;;;;;8.45;3.20;;;;;;;;;;10286939;28;20072;-62
2022/04/09 02:06:47;;;;;;;7.13;2.90;;;;;;;;;;10285151;28;20087;-63
2022/04/09 02:11:46;;;;;;;4.43;3.53;;;;;;;;;;10296961;28;20045;-62
2022/04/09 02:16:47;;;;;;;3.53;2.92;;;;;;;;;;10314245;28;20060;-63
2022/04/09 02:21:45;;;;;;;3.90;3.13;;;;;;;;;;10313335;28;20087;-63
2022/04/09 02:26:43;;;;;;;6.78;3.33;;;;;;;;;;10308949;28;20469;-62
2022/04/09 02:31:43;;;;;;;4.18;2.80;;;;;;;;;;10283264;28;20041;-62
2022/04/09 02:36:43;;;;;;;3.65;2.83;;;;;;;;;;10279684;28;20068;-62
2022/04/09 02:41:42;;;;;;;8.63;4.05;;;;;;;;;;10297321;28;20087;-62
2022/04/09 02:46:40;;;;;;;11.82;4.05;;;;;;;;;;10298088;28;20099;-62
2022/04/09 02:51:39;;;;;;;10.30;4.35;;;;;;;;;;10282537;28;20045;-62
2022/04/09 02:56:40;;;;;;;7.82;5.35;;;;;;;;;;10283158;28;20053;-62
2022/04/09 03:01:39;;;;;;;9.13;6.05;;;;;;;;;;10282676;28;20080;-63
2022/04/09 03:06:38;;;;;;;8.48;5.63;;;;;;;;;;10282254;28;20526;-62
2022/04/09 03:11:37;;;;;;;10.80;7.28;;;;;;;;;;10282669;28;20059;-63
2022/04/09 03:16:37;;;;;;;17.50;6.80;;;;;;;;;;10283928;28;20074;-63
2022/04/09 03:21:35;;;;;;;7.97;5.88;;;;;;;;;;10283619;28;20072;-63
2022/04/09 03:26:34;;;;;;;8.05;5.47;;;;;;;;;;10281698;28;20509;-62
2022/04/09 03:31:35;;;;;;;6.70;6.00;;;;;;;;;;10280060;28;20052;-63
2022/04/09 03:36:37;;;;;;;13.75;6.32;;;;;;;;;;10281926;28;20056;-63
2022/04/09 03:41:37;;;;;;;8.77;4.93;;;;;;;;;;10286325;28;20505;-63
2022/04/09 03:46:37;;;;;;;9.63;5.38;;;;;;;;;;10289676;28;20421;-63
2022/04/09 03:51:42;;;;;;;9.73;4.55;;;;;;;;;;10304545;28;20483;-63
2022/04/09 03:56:43;;;;;;;8.80;5.13;;;;;;;;;;10289867;28;20061;-62
2022/04/09 04:01:47;;;;;;;7.32;4.75;;;;;;;;;;10303417;28;20083;-62
2022/04/09 04:06:50;;;;;;;6.07;4.97;;;;;;;;;;10271867;28;20065;-63
2022/04/09 04:11:48;;;;;;;5.85;5.25;;;;;;;;;;10290966;28;20083;-63
2022/04/09 04:16:48;;;;;;;12.15;4.35;;;;;;;;;;10251878;28;20044;-64
2022/04/09 04:21:46;;;;;;;8.68;4.88;;;;;;;;;;10274281;28;20493;-63
2022/04/09 04:26:46;;;;;;;12.10;5.10;;;;;;;;;;10304728;28;20080;-63
2022/04/09 04:31:51;;;;;;;6.65;4.63;;;;;;;;;;10279875;28;20073;-62
2022/04/09 04:36:50;;;;;;;8.30;5.05;;;;;;;;;;10274248;28;20067;-62
2022/04/09 04:41:51;;;;;;;6.10;4.28;;;;;;;;;;10276386;28;20510;-63
2022/04/09 04:46:51;;;;;;;5.65;4.18;;;;;;;;;;10274994;28;20052;-62
2022/04/09 04:51:53;;;;;;;9.90;6.07;;;;;;;;;;10274034;28;20425;-62
2022/04/09 04:56:54;;;;;;;11.38;4.93;;;;;;;;;;10276148;28;20088;-59
2022/04/09 05:01:52;;;;;;;5.90;5.05;;;;;;;;;;10271932;28;20077;-60
2022/04/09 05:06:51;;;;;;;6.07;4.15;;;;;;;;;;10273703;28;20091;-61
2022/04/09 05:11:54;;;;;;;6.78;4.38;;;;;;;;;;10274869;28;20049;-61
2022/04/09 05:16:59;;;;;;;7.40;4.10;;;;;;;;;;10270217;28;20080;-61
2022/04/09 05:22:01;;;;;;;5.18;4.10;;;;;;;;;;10275912;28;20080;-61
2022/04/09 05:27:04;;;;;;;6.95;4.00;;;;;;;;;;10275256;28;20053;-60
2022/04/09 05:32:06;;;;;;;7.78;4.72;;;;;;;;;;10292620;28;20374;-60
2022/04/09 05:37:07;;;;;;;8.52;5.05;;;;;;;;;;10275130;28;20076;-60
2022/04/09 05:42:08;;;;;;;6.95;4.60;;;;;;;;;;10257305;28;20321;-60
2022/04/09 05:47:07;;;;;;;6.05;4.10;;;;;;;;;;10271208;28;20048;-61
2022/04/09 05:52:06;;;;;;;6.80;4.53;;;;;;;;;;10269851;28;20615;-60
2022/04/09 05:57:07;;;;;;;8.00;4.40;;;;;;;;;;10282876;28;20527;-59
2022/04/09 06:02:10;;;;;;;9.95;3.70;;;;;;;;;;10274810;28;20082;-61
2022/04/09 06:07:13;;;;;;;11.98;8.38;;;;;;;;;;10272557;28;20084;-61
2022/04/09 06:12:26;;;;;;;9.30;5.47;;;;;;;;;;10259710;28;20081;-61
2022/04/09 06:17:36;;;;;;;11.27;4.57;;;;;;;;;;10267574;28;20338;-60
2022/04/09 06:22:35;;;;;;;9.50;5.20;;;;;;;;;;10271372;28;20076;-60
2022/04/09 06:27:37;;;;;;;10.75;6.30;;;;;;;;;;10265137;28;20544;-60
2022/04/09 06:32:38;;;;;;;8.88;5.88;;;;;;;;;;10277249;28;20079;-61
2022/04/09 06:37:38;;;;;;;10.50;6.45;;;;;;;;;;10282187;28;20084;-62
2022/04/09 06:42:38;;;;;;;16.17;6.00;;;;;;;;;;10276693;28;20076;-62
2022/04/09 06:47:51;;;;;;;10.27;5.20;;;;;;;;;;10255952;28;20584;-62
2022/04/09 06:52:49;;;;;;;11.02;6.60;;;;;;;;;;10265924;28;20076;-62
2022/04/09 06:58:01;;;;;;;10.52;5.13;;;;;;;;;;10259197;28;20413;-60
2022/04/09 07:03:10;;;;;;;10.73;4.38;;;;;;;;;;10282407;28;20080;-60
2022/04/09 07:08:09;;;;;;;6.70;4.10;;;;;;;;;;10270592;28;20076;-60
2022/04/09 07:13:08;;;;;;;4.93;4.10;;;;;;;;;;10269140;28;20544;-61
2022/04/09 07:18:07;;;;;;;17.75;8.25;;;;;;;;;;10271681;28;20069;-61
2022/04/09 07:23:05;;;;;;;10.02;5.05;;;;;;;;;;10271484;28;20069;-61
2022/04/09 07:28:03;;;;;;;7.03;3.35;;;;;;;;;;10269046;28;20072;-60
2022/04/09 07:33:03;;;;;;;6.97;2.63;;;;;;;;;;10269914;28;20455;-61
2022/04/09 07:38:02;;;;;;;8.35;4.00;;;;;;;;;;10269482;28;20401;-62
2022/04/09 07:43:01;;;;;;;9.43;4.78;;;;;;;;;;10267207;28;20086;-61
2022/04/09 07:48:00;;;;;;;8.70;3.95;;;;;;;;;;10265150;28;20099;-61
2022/04/09 07:53:00;;;;;;;5.10;2.70;;;;;;;;;;10267914;28;20075;-61
2022/04/09 07:57:59;;;;;;;7.20;4.28;;;;;;;;;;10267715;28;20399;-61
2022/04/09 08:03:03;;;;;;;;;;;;;;;;;;10268951;28;20072;-59
2022/04/09 08:08:04;;;;;;;5.03;2.72;;;;;;;;;;10268903;28;19949;-60
2022/04/09 08:13:02;;;;;;;6.50;3.20;;;;;;;;;;10269754;28;20310;-60
2022/04/09 08:18:03;;;;;;;11.18;3.40;;;;;;;;;;10268401;28;20483;-61
2022/04/09 08:23:23;;;;;;;6.53;2.72;;;;;;;;;;10267808;28;20560;-61
2022/04/09 08:28:21;;;;;;;4.15;3.17;;;;;;;;;;10273263;28;20503;-61
2022/04/09 08:33:19;;;;;;;6.15;3.95;;;;;;;;;;10275999;28;20072;-61
2022/04/09 08:38:17;;;;;;;14.43;4.13;;;;;;;;;;10274873;28;20073;-61
2022/04/09 08:43:17;;;;;;;10.43;3.22;;;;;;;;;;10275462;28;20076;-59
2022/04/09 08:48:16;;;;;;;6.72;4.35;;;;;;;;;;10273410;28;20075;-60
2022/04/09 08:53:14;;;;;;;4.03;2.22;;;;;;;;;;10274518;28;20064;-60
2022/04/09 08:58:12;;;;;;;6.30;3.67;;;;;;;;;;10274719;28;20037;-60
2022/04/09 09:03:14;;;;;;;4.70;2.80;;;;;;;;;;10274993;28;20079;-60
2022/04/09 09:08:13;;;;;;;6.82;2.78;;;;;;;;;;10274029;28;20068;-61
2022/04/09 09:13:12;;;;;;;12.80;4.82;;;;;;;;;;10274738;28;20094;-61
2022/04/09 09:18:22;;;;;;;8.77;2.78;;;;;;;;;;10272438;28;20154;-60
2022/04/09 09:23:24;;;;;;;5.40;2.67;;;;;;;;;;10275266;28;20072;-61
2022/04/09 09:28:23;;;;;;;5.63;2.45;;;;;;;;;;10281646;28;20454;-60
2022/04/09 09:33:23;;;;;;;5.05;2.80;;;;;;;;;;10277456;28;20072;-61
2022/04/09 09:38:42;;;;;;;4.40;2.60;;;;;;;;;;10286459;28;20068;-60
2022/04/09 09:43:40;;;;;;;3.17;2.20;;;;;;;;;;10277346;28;20076;-61
2022/04/09 09:48:40;;;;;;;4.75;2.60;;;;;;;;;;10270450;28;20061;-61
2022/04/09 09:53:40;;;;;;;7.03;2.25;;;;;;;;;;10286756;28;20052;-61
2022/04/09 09:58:39;;;;;;;7.13;3.25;;;;;;;;;;10286849;28;20072;-60
2022/04/09 10:03:50;;;;;;;5.25;2.42;;;;;;;;;;10270066;28;20077;-61
2022/04/09 10:08:49;;;;;;;6.07;2.60;;;;;;;;;;10285166;28;20080;-62
2022/04/09 10:13:48;;;;;;;6.70;4.05;;;;;;;;;;10286051;28;20080;-63
2022/04/09 10:18:49;;;;;;;5.07;4.18;;;;;;;;;;10277981;28;20083;-63
2022/04/09 10:23:48;;;;;;;4.53;2.10;;;;;;;;;;10274050;28;20072;-63
2022/04/09 10:28:50;;;;;;;6.15;3.60;;;;;;;;;;10275607;28;20107;-61
2022/04/09 10:33:55;;;;;;;8.10;3.33;;;;;;;;;;10283740;28;20080;-62
2022/04/09 10:39:16;;;;;;;13.25;6.53;;;;;;;;;;10273322;28;20068;-61
2022/04/09 10:44:33;;;;;;;9.85;5.32;;;;;;;;;;10273654;28;20110;-62
2022/04/09 10:49:33;;;;;;;8.82;4.38;;;;;;;;;;10273484;28;20462;-61
2022/04/09 10:54:31;;;;;;;9.30;5.40;;;;;;;;;;10283914;28;20088;-62
2022/04/09 10:59:33;;;;;;;18.73;12.82;;;;;;;;;;10283383;28;20087;-62
2022/04/09 11:04:40;;;;;;;3.78;2.03;;;;;;;;;;10283634;28;20087;-63
2022/04/09 11:09:45;;;;;;;3.13;2.13;;;;;;;;;;10282222;28;20056;-60
2022/04/09 11:14:47;;;;;;;6.22;3.08;;;;;;;;;;10280071;28;20167;-61
2022/04/09 11:19:48;;;;;;;2.95;1.70;;;;;;;;;;10271476;28;20072;-61
2022/04/09 11:24:48;;;;;;;4.25;1.90;;;;;;;;;;10274125;28;20091;-60
2022/04/09 11:29:46;;;;;;;3.90;1.95;;;;;;;;;;10274497;28;20430;-61
2022/04/09 11:34:49;;;;;;;4.75;1.30;;;;;;;;;;10270263;28;20075;-61
2022/04/09 11:39:49;;;;;;;5.63;2.60;;;;;;;;;;10273406;28;20065;-62
2022/04/09 11:44:47;;;;;;;3.90;1.67;;;;;;;;;;10275824;28;20815;-63
2022/04/09 11:49:47;;;;;;;7.30;2.30;;;;;;;;;;10279628;28;20435;-61
2022/04/09 11:54:46;;;;;;;11.88;5.45;;;;;;;;;;10268818;28;20075;-61
2022/04/09 11:59:50;;;;;;;2.90;1.90;;;;;;;;;;10270986;28;20076;-62
2022/04/09 12:04:49;;;;;;;3.35;2.30;;;;;;;;;;10281196;28;20085;-61
2022/04/09 12:09:48;;;;;;;2.30;1.38;;;;;;;;;;10278184;28;20529;-63
2022/04/09 12:14:54;;;;;;;6.85;2.15;;;;;;;;;;10281008;28;20486;-62
2022/04/09 12:19:53;;;;;;;2.55;1.40;;;;;;;;;;10273612;28;20068;-61
2022/04/09 12:24:53;;;;;;;3.88;2.50;;;;;;;;;;10277003;28;20484;-61
2022/04/09 12:29:55;;;;;;;3.22;2.17;;;;;;;;;;10279513;28;20438;-62
2022/04/09 12:34:57;;;;;;;2.20;1.73;;;;;;;;;;10277203;28;20064;-62
2022/04/09 12:45:22;;;;;;;3.78;2.38;;;;;;;;;;10314819;27;20394;-62
2022/04/09 12:50:22;;;;;;;2.78;1.63;;;;;;;;;;10306800;28;20071;-62
2022/04/09 12:55:20;;;;;;;3.88;2.15;;;;;;;;;;10281433;28;20068;-62
2022/04/09 13:00:20;;;;;;;3.28;2.40;;;;;;;;;;10291415;28;20079;-62
2022/04/09 13:05:19;;;;;;;3.75;1.60;;;;;;;;;;10292926;28;20053;-60
2022/04/09 13:10:17;;;;;;;2.88;1.98;;;;;;;;;;10277532;28;20533;-62
2022/04/09 13:15:16;;;;;;;8.15;1.70;;;;;;;;;;10276687;28;20045;-61
2022/04/09 13:20:17;;;;;;;3.08;1.60;;;;;;;;;;10276607;28;20045;-61
2022/04/09 13:25:18;;;;;;;5.30;1.42;;;;;;;;;;10276252;28;20069;-61
2022/04/09 13:30:17;;;;;;;5.30;1.80;;;;;;;;;;10288999;28;20080;-62
2022/04/09 13:35:17;;;;;;;4.40;2.22;;;;;;;;;;10276859;28;20079;-61
2022/04/09 13:40:15;;;;;;;5.32;1.67;;;;;;;;;;10273592;28;20099;-61
2022/04/09 13:45:14;;;;;;;3.25;1.90;;;;;;;;;;10271729;28;20065;-62
2022/04/09 13:50:13;;;;;;;5.53;2.15;;;;;;;;;;10275277;28;20065;-62
2022/04/09 13:55:12;;;;;;;7.20;2.63;;;;;;;;;;10256148;28;20065;-62
2022/04/09 14:00:11;;;;;;;6.25;2.55;;;;;;;;;;10258984;28;20068;-61
2022/04/09 14:05:10;;;;;;;4.63;2.05;;;;;;;;;;10253148;28;20399;-62
2022/04/09 14:10:08;;;;;;;10.32;3.30;;;;;;;;;;10249092;28;20072;-62
2022/04/09 14:15:09;;;;;;;4.47;3.30;;;;;;;;;;10245145;28;20073;-65
2022/04/09 14:20:07;;;;;;;6.18;3.88;;;;;;;;;;10248361;28;20619;-67
2022/04/09 14:25:06;;;;;;;7.20;5.13;;;;;;;;;;10248293;28;20084;-68
2022/04/09 14:30:05;;;;;;;7.10;4.15;;;;;;;;;;10248066;28;20068;-68
2022/04/09 14:35:05;;;;;;;6.43;4.93;;;;;;;;;;10247905;28;20084;-66
2022/04/09 14:40:03;;;;;;;7.10;3.05;;;;;;;;;;10247452;28;20084;-67
2022/04/09 14:45:02;;;;;;;6.15;2.95;;;;;;;;;;10257403;28;20088;-67
2022/04/09 14:50:01;;;;;;;7.28;4.05;;;;;;;;;;10252681;28;20289;-68
2022/04/09 14:55:00;;;;;;;5.90;2.72;;;;;;;;;;10257854;28;20068;-67
2022/04/09 14:59:58;;;;;;;6.40;2.40;;;;;;;;;;10252133;28;20052;-68
2022/04/09 15:04:57;;;;;;;6.13;3.03;;;;;;;;;;10245684;28;20096;-68
2022/04/09 15:09:56;;;;;;;10.63;6.22;;;;;;;;;;10256597;28;20484;-68
2022/04/09 15:14:55;;;;;;;15.68;11.00;;;;;;;;;;10251741;28;20084;-67
2022/04/09 15:19:53;;;;;;;4.43;2.83;;;;;;;;;;10245652;28;20466;-67
2022/04/09 15:24:52;;;;;;;12.90;5.13;;;;;;;;;;10254242;28;20088;-67
2022/04/09 15:29:54;;;;;;;11.75;8.82;;;;;;;;;;10249612;28;20080;-67
2022/04/09 15:34:54;;;;;;;8.95;5.55;;;;;;;;;;10251414;28;20480;-67
2022/04/09 15:39:52;;;;;;;10.57;7.50;;;;;;;;;;10250604;28;20490;-67
2022/04/09 15:44:50;;;;;;;12.43;7.13;;;;;;;;;;10243768;28;20589;-68
2022/04/09 15:49:49;;;;;;;7.13;3.65;;;;;;;;;;10234537;28;20049;-67
2022/04/09 15:54:48;;;;;;;14.48;6.88;;;;;;;;;;10244869;28;20060;-66
2022/04/09 15:59:47;;;;;;;7.07;3.75;;;;;;;;;;10252488;28;20518;-66
2022/04/09 16:04:45;;;;;;;10.35;4.65;;;;;;;;;;10252178;28;20077;-67
2022/04/09 16:09:50;;;;;;;5.70;3.88;;;;;;;;;;10242540;28;20045;-67
2022/04/09 16:14:48;;;;;;;8.27;4.18;;;;;;;;;;10252332;28;20481;-67
2022/04/09 16:19:47;;;;;;;8.93;4.90;;;;;;;;;;10251570;28;20079;-67
2022/04/09 16:24:46;;;;;;;10.07;5.18;;;;;;;;;;10252871;28;20471;-63
2022/04/09 16:29:47;;;;;;;13.27;4.85;;;;;;;;;;10251862;28;20080;-63
2022/04/09 16:34:46;;;;;;;9.43;4.47;;;;;;;;;;10267685;28;20464;-63
2022/04/09 16:39:44;;;;;;;10.30;4.63;;;;;;;;;;10270809;28;20064;-62
2022/04/09 16:44:42;;;;;;;11.32;6.53;;;;;;;;;;10258984;28;20092;-62
2022/04/09 16:49:44;;;;;;;55.90;37.97;;;;;;;;;;10252065;28;20462;-62
2022/04/09 16:54:43;;;;;;;154.35;115.22;;;;;;;;;;10251660;28;20458;-63
2022/04/09 16:59:41;;;;;;;321.38;269.75;;;;;;;;;;10271319;28;20487;-63
2022/04/09 17:04:40;;;;;;;185.95;143.73;;;;;;;;;;10267841;28;20650;-63
2022/04/09 17:09:39;;;;;;;161.70;138.63;;;;;;;;;;10269270;28;20132;-63
2022/04/09 17:14:38;;;;;;;57.22;45.85;;;;;;;;;;10276955;28;20087;-63
2022/04/09 17:19:36;;;;;;;37.35;32.05;;;;;;;;;;10291434;28;20067;-62
2022/04/09 17:24:34;;;;;;;58.83;43.85;;;;;;;;;;10273225;28;20076;-63
2022/04/09 17:29:34;;;;;;;35.05;26.23;;;;;;;;;;10287954;28;20076;-65
2022/04/09 17:34:34;;;;;;;93.55;77.22;;;;;;;;;;10295275;28;20064;-60
2022/04/09 17:39:34;;;;;;;85.10;69.80;;;;;;;;;;10263769;28;20068;-61
2022/04/09 17:44:34;;;;;;;64.75;46.05;;;;;;;;;;10262420;28;20084;-63
2022/04/09 17:49:33;;;;;;;39.70;29.25;;;;;;;;;;10280418;28;20513;-63
2022/04/09 17:54:31;;;;;;;35.97;23.30;;;;;;;;;;10269751;28;20531;-62
2022/04/09 17:59:29;;;;;;;60.47;16.10;;;;;;;;;;10283452;28;20060;-63
2022/04/09 18:04:29;;;;;;;31.50;12.55;;;;;;;;;;10280653;28;20072;-63
2022/04/09 18:09:30;;;;;;;9.95;5.95;;;;;;;;;;10278942;28;20510;-62
2022/04/09 18:14:29;;;;;;;7.10;4.90;;;;;;;;;;10250934;28;20481;-63
2022/04/09 18:19:28;;;;;;;7.38;4.65;;;;;;;;;;10269310;28;20069;-62
2022/04/09 18:24:27;;;;;;;6.05;3.83;;;;;;;;;;10271868;28;20072;-63
2022/04/09 18:29:25;;;;;;;7.57;3.35;;;;;;;;;;10283830;28;20497;-63
2022/04/09 18:34:23;;;;;;;4.65;2.78;;;;;;;;;;10287285;28;20171;-62
2022/04/09 18:39:23;;;;;;;8.13;2.55;;;;;;;;;;10273940;28;20076;-62
2022/04/09 18:44:22;;;;;;;4.90;2.80;;;;;;;;;;10277306;28;20112;-63
2022/04/09 18:49:20;;;;;;;5.70;2.33;;;;;;;;;;10253754;28;20061;-62
2022/04/09 18:54:18;;;;;;;5.88;2.78;;;;;;;;;;10269707;28;20076;-62
2022/04/09 18:59:18;;;;;;;35.33;13.85;;;;;;;;;;10261257;28;20576;-62
2022/04/09 19:04:16;;;;;;;6.53;3.00;;;;;;;;;;10257976;28;20080;-62
2022/04/09 19:09:15;;;;;;;7.20;2.50;;;;;;;;;;10266056;28;20079;-62
2022/04/09 19:14:13;;;;;;;9.85;3.03;;;;;;;;;;10273862;28;20075;-62
2022/04/09 19:19:12;;;;;;;5.55;2.67;;;;;;;;;;10277235;28;20457;-63
2022/04/09 19:24:11;;;;;;;6.80;2.63;;;;;;;;;;10263140;28;20085;-61
2022/04/09 19:29:09;;;;;;;6.80;4.22;;;;;;;;;;10273671;28;20095;-61
2022/04/09 19:34:07;;;;;;;5.35;2.83;;;;;;;;;;10260543;28;20099;-60
2022/04/09 19:39:07;;;;;;;7.47;3.40;;;;;;;;;;10269933;28;20064;-61
2022/04/09 19:44:05;;;;;;;6.60;3.22;;;;;;;;;;10260425;28;20085;-60
2022/04/09 19:49:04;;;;;;;6.80;3.40;;;;;;;;;;10267057;28;20091;-60
2022/04/09 19:54:03;;;;;;;8.48;3.53;;;;;;;;;;10252672;28;20518;-59
2022/04/09 19:59:03;;;;;;;4.18;2.63;;;;;;;;;;10248367;28;20750;-59
2022/04/09 20:04:01;;;;;;;8.25;3.97;;;;;;;;;;10268001;28;20075;-60
2022/04/09 20:09:00;;;;;;;5.75;2.83;;;;;;;;;;10253855;28;20065;-62
2022/04/09 20:13:58;;;;;;;7.10;3.03;;;;;;;;;;10257048;28;20077;-59
2022/04/09 20:19:00;;;;;;;10.27;3.40;;;;;;;;;;10254428;28;20135;-61
2022/04/09 20:24:04;;;;;;;17.55;11.27;;;;;;;;;;10259002;28;20508;-59
2022/04/09 20:29:03;;;;;;;8.48;2.92;;;;;;;;;;10258405;28;20057;-61
2022/04/09 20:34:03;;;;;;;5.05;2.97;;;;;;;;;;10261434;28;20502;-61
2022/04/09 20:39:03;;;;;;;6.13;3.20;;;;;;;;;;10246421;28;20071;-61
2022/04/09 20:44:02;;;;;;;6.88;2.83;;;;;;;;;;10262971;28;20087;-62
2022/04/09 20:49:01;;;;;;;11.20;3.65;;;;;;;;;;10272659;28;20060;-62
2022/04/09 20:54:00;;;;;;;8.43;2.95;;;;;;;;;;10266507;28;20320;-62
2022/04/09 20:58:59;;;;;;;4.10;2.28;;;;;;;;;;10260247;28;20112;-62
2022/04/09 21:03:57;;;;;;;5.60;2.22;;;;;;;;;;10268950;28;20100;-63
2022/04/09 21:08:55;;;;;;;4.82;2.20;;;;;;;;;;10281067;28;20080;-61
2022/04/09 21:13:56;;;;;;;8.15;2.50;;;;;;;;;;10281692;28;20080;-62
2022/04/09 21:18:55;;;;;;;4.50;2.95;;;;;;;;;;10286610;28;20088;-62
2022/04/09 21:23:53;;;;;;;5.78;3.28;;;;;;;;;;10272905;28;20076;-61
2022/04/09 21:28:51;;;;;;;7.28;2.45;;;;;;;;;;10270560;28;20079;-62
2022/04/09 21:33:51;;;;;;;6.72;2.65;;;;;;;;;;10269728;28;20084;-62
2022/04/09 21:38:49;;;;;;;4.60;2.50;;;;;;;;;;10270677;28;20568;-62
2022/04/09 21:43:47;;;;;;;3.50;2.50;;;;;;;;;;10273697;28;20112;-64
2022/04/09 21:48:46;;;;;;;6.45;3.20;;;;;;;;;;10282909;28;20056;-63
2022/04/09 21:53:45;;;;;;;3.80;2.50;;;;;;;;;;10272539;28;20041;-63
2022/04/09 21:58:43;;;;;;;9.10;2.38;;;;;;;;;;10269527;28;20525;-63
2022/04/09 22:03:43;;;;;;;4.93;2.00;;;;;;;;;;10274568;28;20079;-63
2022/04/09 22:08:41;;;;;;;7.15;2.35;;;;;;;;;;10271161;28;20076;-63
2022/04/09 22:13:41;;;;;;;7.32;2.75;;;;;;;;;;10275909;28;20088;-63
2022/04/09 22:18:39;;;;;;;6.55;2.13;;;;;;;;;;10268758;28;20076;-63
2022/04/09 22:23:38;;;;;;;2.95;1.90;;;;;;;;;;10271542;28;20060;-63
2022/04/09 22:28:36;;;;;;;4.15;2.33;;;;;;;;;;10269089;28;20099;-62
2022/04/09 22:33:36;;;;;;;4.22;2.38;;;;;;;;;;10268501;28;20477;-63
2022/04/09 22:38:34;;;;;;;5.85;2.83;;;;;;;;;;10262752;28;20064;-63
2022/04/09 22:43:32;;;;;;;7.05;2.47;;;;;;;;;;10267974;28;20087;-63
2022/04/09 22:48:30;;;;;;;8.65;3.78;;;;;;;;;;10268478;28;20532;-63
2022/04/09 22:53:30;;;;;;;9.20;3.08;;;;;;;;;;10268141;28;20104;-63
2022/04/09 22:58:28;;;;;;;5.45;2.88;;;;;;;;;;10268168;28;20508;-63
2022/04/09 23:03:26;;;;;;;4.78;2.67;;;;;;;;;;10267635;28;20464;-63
2022/04/09 23:08:25;;;;;;;8.18;3.10;;;;;;;;;;10267925;28;20572;-63
2022/04/09 23:13:24;;;;;;;7.45;2.95;;;;;;;;;;10266987;28;20064;-63
2022/04/09 23:18:23;;;;;;;7.25;2.85;;;;;;;;;;10267156;28;20077;-63
2022/04/09 23:23:21;;;;;;;7.65;2.78;;;;;;;;;;10275572;28;20068;-63
2022/04/09 23:28:19;;;;;;;5.68;2.90;;;;;;;;;;10275300;28;20080;-63
2022/04/09 23:33:19;;;;;;;4.72;2.70;;;;;;;;;;10266826;28;20084;-62
2022/04/09 23:38:17;;;;;;;4.88;2.40;;;;;;;;;;10266546;28;20076;-62
2022/04/09 23:43:15;;;;;;;5.50;2.92;;;;;;;;;;10266381;28;20088;-63
2022/04/09 23:48:13;;;;;;;10.32;2.90;;;;;;;;;;10259358;28;20546;-63
2022/04/09 23:53:13;;;;;;;7.20;2.88;;;;;;;;;;10259409;28;20095;-63
2022/04/09 23:58:11;;;;;;;4.90;2.90;;;;;;;;;;10265136;28;20080;-63
